Airfield :
LOGIN :

Register | Disclaimer

   EN    FR    IT 

 










Legend :    VFR   Marginal VFR   IFR   Intensive IFR   Very Intensive IFR
Visi :
Ceiling :
>= 8 km
>= 3000ft
5 to 8 km
1000 to 3000 ft
1500m to 5 km
500 to 1000 ft
800 to 1500m
200 to 500 ft
< 800m
< 200 ft
Symbols :   Thunderstorms  Fog  Heavy snow  Heavy precipitations  Wind > 20 kt
SIGMETs :     Misc.  Thunderstorms  Icing  Turbulence  Mountain Waves  Volcanic Ashes






- Airport Elevation : -11 ft
- IATA code : AMS


EHAM - Amsterdam Schiphol

CURRENT METAR :
  • 272125Z 19007KT 9999 FEW037TCU 12/10 Q1018 NOSIG

EXPIRED METARs :
  • 272055Z 19006KT 9999 FEW037 13/10 Q1018 NOSIG
  • 272025Z 19007KT 9999 FEW036 13/10 Q1017 NOSIG
  • 271955Z 20006KT 9999 VCSH FEW036 13/10 Q1017 NOSIG
  • 271925Z 22007KT 190V250 9999 FEW036 15/10 Q1016 NOSIG
  • 271855Z 25008KT 9999 FEW036 15/10 Q1016 NOSIG

TAF TAF EHAM
Valid from the 27 at 18:00 until the 29 at 00:00 UTC


271730Z 2718/2824 25010KT 9999 FEW035
BECMG 2718/2720 21006KT
BECMG 2808/2811 20012KT
BECMG 2816/2818 15007KT



MET'MAP, your aeronautical weather chart ! - Copyright ORBIFLY December 2007 - Disclaimer

ORBIFLY MET'MAP TEAM :

Programming & Development : Alexandra Zaïnal
Concept & original design : Baudouin d'Aumeries
Assistance for programming : Marc-Olivier Méhu
Technical & hardware support : Manuel Goepfert

Contact : metmap@orbifly.com




SOURCES & CREDITS :

   NOAA